createdAt,value
2022-08-18T00:01:42.246Z,23.60
2022-08-18T00:04:32.398Z,23.60
2022-08-18T00:06:59.191Z,23.50
2022-08-18T00:09:31.563Z,23.60
2022-08-18T00:12:03.117Z,23.50
2022-08-18T00:14:31.036Z,23.50
2022-08-18T00:16:58.780Z,23.50
2022-08-18T00:19:46.923Z,23.60
2022-08-18T00:22:18.893Z,23.50
2022-08-18T00:24:49.647Z,23.50
2022-08-18T00:27:21.682Z,23.60
2022-08-18T00:29:51.689Z,23.50
2022-08-18T00:32:22.840Z,23.50
2022-08-18T00:34:51.261Z,23.50
2022-08-18T00:37:19.328Z,23.50
2022-08-18T00:39:48.046Z,23.50
2022-08-18T00:42:30.377Z,23.50
2022-08-18T00:45:05.536Z,23.50
2022-08-18T00:47:42.296Z,23.40
2022-08-18T00:50:15.830Z,23.40
2022-08-18T00:52:52.141Z,23.40
2022-08-18T00:55:21.920Z,23.30
2022-08-18T00:57:52.682Z,23.30
2022-08-18T01:00:22.163Z,23.30
2022-08-18T01:02:55.301Z,23.20
2022-08-18T01:05:34.014Z,23.20
2022-08-18T01:08:02.035Z,23.10
2022-08-18T01:10:33.319Z,23.10
2022-08-18T01:13:01.108Z,23.10
2022-08-18T01:15:30.358Z,23.00
2022-08-18T01:18:23.829Z,23.00
2022-08-18T01:21:35.005Z,23.00
2022-08-18T01:24:05.460Z,23.00
2022-08-18T01:26:37.408Z,23.00
2022-08-18T01:29:18.797Z,23.00
2022-08-18T01:31:57.017Z,23.00
2022-08-18T01:34:27.542Z,23.00
2022-08-18T01:36:55.381Z,23.00
2022-08-18T01:40:59.863Z,23.00
2022-08-18T01:42:13.883Z,23.00
2022-08-18T01:44:41.822Z,23.00
2022-08-18T01:47:11.773Z,22.90
2022-08-18T01:49:41.862Z,22.90
2022-08-18T01:52:11.513Z,22.90
2022-08-18T01:54:41.118Z,22.90
2022-08-18T01:57:13.380Z,22.80
2022-08-18T01:59:42.865Z,22.80
2022-08-18T02:02:18.139Z,22.80
2022-08-18T02:04:47.512Z,22.80
2022-08-18T02:07:15.324Z,22.70
2022-08-18T02:09:43.727Z,22.70
2022-08-18T02:12:11.376Z,22.70
2022-08-18T02:14:39.428Z,22.70
2022-08-18T02:17:08.809Z,22.70
2022-08-18T02:19:39.358Z,22.80
2022-08-18T02:22:09.772Z,22.90
2022-08-18T02:24:38.155Z,23.00
2022-08-18T02:27:05.950Z,23.10
2022-08-18T02:29:34.513Z,23.20
2022-08-18T02:32:01.818Z,23.20
2022-08-18T02:34:29.256Z,23.30
2022-08-18T02:36:56.676Z,23.40
2022-08-18T02:39:24.057Z,23.40
2022-08-18T02:41:51.594Z,23.50
2022-08-18T02:44:19.490Z,23.60
2022-08-18T02:46:51.556Z,23.60
2022-08-18T02:49:19.345Z,23.70
2022-08-18T02:51:46.657Z,23.80
2022-08-18T02:54:14.148Z,23.80
2022-08-18T02:56:42.618Z,23.90
2022-08-18T02:59:16.017Z,23.90
2022-08-18T03:01:51.297Z,24.00
2022-08-18T03:04:26.795Z,24.00
2022-08-18T03:06:57.934Z,24.10
2022-08-18T03:09:25.444Z,24.10
2022-08-18T03:11:53.438Z,24.10
2022-08-18T03:14:20.959Z,24.20
2022-08-18T03:16:54.319Z,24.20
2022-08-18T03:19:24.984Z,24.20
2022-08-18T03:21:52.736Z,24.30
2022-08-18T03:24:22.425Z,24.30
2022-08-18T03:26:52.634Z,24.30
2022-08-18T03:29:21.197Z,24.40
2022-08-18T03:31:49.697Z,24.40
2022-08-18T03:34:20.163Z,24.40
2022-08-18T03:36:49.856Z,24.40
2022-08-18T03:39:19.190Z,24.40
2022-08-18T03:41:59.787Z,24.40
2022-08-18T03:44:36.946Z,24.40
2022-08-18T03:47:09.704Z,24.40
2022-08-18T03:49:38.573Z,24.50
2022-08-18T03:52:09.943Z,24.50
2022-08-18T03:54:39.135Z,24.50
2022-08-18T03:57:11.523Z,24.50
2022-08-18T03:59:41.647Z,24.50
2022-08-18T04:02:10.094Z,24.50
2022-08-18T04:04:37.842Z,24.50
2022-08-18T04:07:14.209Z,24.40
2022-08-18T04:09:42.967Z,24.40
2022-08-18T04:12:16.840Z,24.40
2022-08-18T04:14:47.999Z,24.40
2022-08-18T04:17:25.012Z,24.40
2022-08-18T04:19:53.874Z,24.40
2022-08-18T04:22:22.729Z,24.40
2022-08-18T04:24:50.294Z,24.40
2022-08-18T04:27:21.520Z,24.40
2022-08-18T04:29:49.788Z,24.40
2022-08-18T04:32:17.895Z,24.40
2022-08-18T04:34:45.632Z,24.40
2022-08-18T04:37:15.397Z,24.30
2022-08-18T04:39:43.641Z,24.30
2022-08-18T04:42:11.513Z,24.30
2022-08-18T04:44:38.946Z,24.30
2022-08-18T04:47:10.628Z,24.30
2022-08-18T04:49:37.936Z,24.30
2022-08-18T04:52:40.354Z,24.30
2022-08-18T04:55:10.372Z,24.30
2022-08-18T04:57:39.358Z,24.30
2022-08-18T05:00:08.285Z,24.30
2022-08-18T05:02:35.771Z,24.30
2022-08-18T05:05:04.307Z,24.30
2022-08-18T05:07:32.689Z,24.30
2022-08-18T05:10:00.260Z,24.30
2022-08-18T05:12:28.963Z,24.30
2022-08-18T05:14:59.215Z,24.30
2022-08-18T05:17:30.089Z,24.30
2022-08-18T05:20:01.398Z,24.40
2022-08-18T05:22:31.804Z,24.40
2022-08-18T05:25:00.318Z,24.40
2022-08-18T05:27:35.218Z,24.50
2022-08-18T05:30:05.317Z,24.50
2022-08-18T05:32:48.633Z,24.50
2022-08-18T05:35:32.298Z,24.60
2022-08-18T05:38:32.974Z,24.60
2022-08-18T05:41:14.531Z,24.70
2022-08-18T05:43:51.363Z,24.70
2022-08-18T05:46:32.440Z,24.70
2022-08-18T05:48:59.945Z,24.70
2022-08-18T05:51:36.713Z,24.60
2022-08-18T05:54:24.914Z,24.70
2022-08-18T05:56:56.920Z,24.70
2022-08-18T05:59:40.008Z,24.70
2022-08-18T06:02:30.278Z,24.70
2022-08-18T06:05:11.810Z,24.70
2022-08-18T06:07:55.676Z,24.70
2022-08-18T06:10:23.339Z,24.70
2022-08-18T06:12:53.991Z,24.60
2022-08-18T06:15:36.084Z,24.60
2022-08-18T06:18:27.129Z,24.60
2022-08-18T06:21:29.271Z,24.50
2022-08-18T06:24:15.801Z,24.50
2022-08-18T06:27:09.979Z,24.40
2022-08-18T06:29:59.548Z,24.30
2022-08-18T06:32:47.197Z,24.20
2022-08-18T06:35:30.076Z,24.20
2022-08-18T06:38:40.907Z,24.10
2022-08-18T06:41:43.793Z,24.20
2022-08-18T06:44:21.223Z,24.20
2022-08-18T06:47:04.080Z,24.30
2022-08-18T06:49:35.897Z,24.30
2022-08-18T06:52:29.937Z,24.40
2022-08-18T06:55:00.574Z,24.40
2022-08-18T06:57:35.569Z,24.40
2022-08-18T07:00:23.876Z,24.40
2022-08-18T07:03:03.978Z,24.30
2022-08-18T07:05:33.986Z,24.30
2022-08-18T07:08:18.586Z,24.30
2022-08-18T07:10:49.478Z,24.40
2022-08-18T07:13:26.451Z,24.40
2022-08-18T07:16:26.458Z,24.40
2022-08-18T07:19:23.134Z,24.40
2022-08-18T07:22:11.618Z,24.40
2022-08-18T07:24:54.251Z,24.50
2022-08-18T07:27:44.193Z,24.50
2022-08-18T07:30:19.164Z,24.50
2022-08-18T07:33:04.808Z,24.50
2022-08-18T07:35:49.331Z,24.60
2022-08-18T07:38:42.805Z,24.50
2022-08-18T07:41:26.730Z,24.60
2022-08-18T07:44:18.667Z,24.60
2022-08-18T07:46:52.115Z,24.50
2022-08-18T07:49:23.201Z,24.60
2022-08-18T07:51:53.549Z,24.50
2022-08-18T07:54:48.822Z,24.50
2022-08-18T07:57:45.983Z,24.50
2022-08-18T08:00:58.062Z,24.50
2022-08-18T08:03:38.829Z,24.50
2022-08-18T08:06:21.964Z,24.60
2022-08-18T08:09:16.894Z,24.70
2022-08-18T08:12:37.169Z,25.00
2022-08-18T08:15:26.738Z,25.40
2022-08-18T08:18:28.880Z,26.10
2022-08-18T08:21:04.160Z,26.80
2022-08-18T08:23:45.391Z,27.50
2022-08-18T08:26:18.418Z,28.00
2022-08-18T08:29:22.151Z,28.40
2022-08-18T08:32:02.030Z,28.60
2022-08-18T08:34:57.214Z,28.60
2022-08-18T08:37:39.634Z,28.70
2022-08-18T08:40:15.411Z,28.60
2022-08-18T08:42:54.980Z,28.50
2022-08-18T08:45:32.294Z,28.40
2022-08-18T08:48:08.519Z,28.30
2022-08-18T08:50:45.265Z,28.10
2022-08-18T08:53:20.560Z,27.90
2022-08-18T08:55:55.046Z,27.70
2022-08-18T08:58:37.736Z,27.50
2022-08-18T09:01:06.736Z,27.30
2022-08-18T09:03:50.902Z,27.20
2022-08-18T09:06:24.021Z,27.10
2022-08-18T09:09:39.029Z,27.20
2022-08-18T09:12:36.600Z,27.40
2022-08-18T09:15:26.365Z,27.70
2022-08-18T09:18:11.291Z,28.00
2022-08-18T09:21:19.035Z,28.40
2022-08-18T09:23:50.854Z,28.70
2022-08-18T09:26:26.809Z,29.00
2022-08-18T09:29:05.972Z,29.40
2022-08-18T09:31:33.936Z,29.60
2022-08-18T09:34:19.341Z,29.80
2022-08-18T09:37:12.293Z,29.90
2022-08-18T09:40:11.050Z,30.10
2022-08-18T09:42:50.616Z,30.30
2022-08-18T09:45:47.054Z,30.40
2022-08-18T09:48:48.501Z,30.60
2022-08-18T09:51:23.449Z,30.90
2022-08-18T09:53:52.573Z,31.10
2022-08-18T09:56:53.462Z,31.30
2022-08-18T09:59:34.178Z,31.50
2022-08-18T10:02:33.722Z,31.80
2022-08-18T10:05:19.504Z,31.90
2022-08-18T10:11:37.079Z,32.00
2022-08-18T10:14:44.401Z,32.00
2022-08-18T10:17:29.111Z,31.90
2022-08-18T10:19:58.113Z,31.80
2022-08-18T10:22:47.931Z,31.70
2022-08-18T10:25:34.892Z,31.60
2022-08-18T10:28:05.543Z,31.50
2022-08-18T10:30:57.035Z,31.50
2022-08-18T10:33:56.024Z,31.40
2022-08-18T10:37:17.116Z,31.40
2022-08-18T10:40:01.106Z,31.40
2022-08-18T10:42:35.617Z,31.40
2022-08-18T10:45:37.308Z,31.60
2022-08-18T10:48:04.684Z,31.60
2022-08-18T10:50:41.468Z,31.70
2022-08-18T10:53:39.309Z,31.70
2022-08-18T10:56:30.465Z,31.70
2022-08-18T10:59:47.832Z,31.80
2022-08-18T11:02:34.773Z,31.70
2022-08-18T11:05:11.548Z,31.70
2022-08-18T11:07:44.850Z,31.70
2022-08-18T11:10:30.020Z,31.70
2022-08-18T11:13:08.631Z,31.70
2022-08-18T11:15:57.418Z,31.80
2022-08-18T11:18:36.264Z,31.80
2022-08-18T11:21:25.350Z,31.80
2022-08-18T11:24:21.420Z,31.90
2022-08-18T11:27:19.397Z,31.90
2022-08-18T11:29:51.474Z,31.90
2022-08-18T11:35:44.119Z,32.00
2022-08-18T11:38:20.831Z,32.00
2022-08-18T11:41:11.587Z,32.00
2022-08-18T11:43:43.195Z,32.10
2022-08-18T11:46:29.511Z,32.20
2022-08-18T11:49:01.509Z,32.20
2022-08-18T11:51:32.327Z,32.20
2022-08-18T11:54:19.038Z,32.20
2022-08-18T11:56:46.556Z,32.20
2022-08-18T11:59:52.879Z,32.20
2022-08-18T12:02:18.708Z,32.20
2022-08-18T12:04:53.058Z,32.20
2022-08-18T12:07:35.299Z,32.30
2022-08-18T12:10:26.431Z,32.30
2022-08-18T12:13:00.700Z,32.30
2022-08-18T12:15:46.721Z,32.30
2022-08-18T12:18:25.893Z,32.40
2022-08-18T12:20:57.081Z,32.40
2022-08-18T12:23:25.250Z,32.40
2022-08-18T12:25:52.730Z,32.50
2022-08-18T12:28:21.304Z,32.50
2022-08-18T12:30:56.163Z,32.60
2022-08-18T12:33:48.191Z,32.60
2022-08-18T12:36:29.073Z,32.60
2022-08-18T12:38:57.130Z,32.70
2022-08-18T12:41:24.940Z,32.70
2022-08-18T12:43:59.147Z,32.80
2022-08-18T12:46:27.416Z,32.80
2022-08-18T12:48:55.397Z,32.80
2022-08-18T12:51:24.878Z,32.80
2022-08-18T12:53:59.938Z,32.80
2022-08-18T12:56:30.822Z,32.90
2022-08-18T12:59:04.180Z,32.90
2022-08-18T13:01:34.067Z,32.90
2022-08-18T13:04:13.148Z,32.90
2022-08-18T13:07:00.246Z,33.00
2022-08-18T13:09:42.742Z,33.00
2022-08-18T13:12:19.964Z,33.00
2022-08-18T13:14:48.196Z,33.10
2022-08-18T13:17:32.349Z,33.20
2022-08-18T13:20:14.371Z,33.30
2022-08-18T13:22:42.396Z,33.30
2022-08-18T13:25:32.626Z,33.40
2022-08-18T13:28:03.091Z,33.30
2022-08-18T13:30:32.311Z,33.40
2022-08-18T13:33:02.460Z,33.40
2022-08-18T13:35:37.965Z,33.30
2022-08-18T13:38:22.123Z,33.30
2022-08-18T13:40:55.462Z,33.30
2022-08-18T13:43:29.473Z,33.20
2022-08-18T13:45:57.705Z,33.20
2022-08-18T13:48:25.816Z,33.10
2022-08-18T13:50:55.760Z,33.10
2022-08-18T13:53:24.959Z,33.00
2022-08-18T13:55:58.105Z,33.00
2022-08-18T13:58:28.124Z,32.90
2022-08-18T14:01:22.803Z,32.90
2022-08-18T14:03:47.942Z,32.90
2022-08-18T14:06:21.919Z,32.90
2022-08-18T14:08:51.797Z,32.90
2022-08-18T14:11:22.152Z,32.90
2022-08-18T14:13:49.613Z,32.80
2022-08-18T14:16:19.379Z,32.70
2022-08-18T14:19:10.153Z,32.60
2022-08-18T14:22:11.509Z,32.60
2022-08-18T14:25:00.328Z,32.60
2022-08-18T14:27:35.183Z,32.60
2022-08-18T14:30:08.215Z,32.60
2022-08-18T14:32:36.857Z,32.50
2022-08-18T14:35:33.454Z,32.50
2022-08-18T14:38:03.919Z,32.50
2022-08-18T14:40:33.369Z,32.40
2022-08-18T14:43:02.722Z,32.30
2022-08-18T14:45:35.651Z,32.30
2022-08-18T14:48:07.275Z,32.20
2022-08-18T14:50:36.886Z,32.20
2022-08-18T14:53:05.760Z,32.20
2022-08-18T14:55:34.108Z,32.20
2022-08-18T14:58:01.938Z,32.20
2022-08-18T15:00:29.481Z,32.20
2022-08-18T15:02:59.492Z,32.20
2022-08-18T15:05:32.225Z,32.30
2022-08-18T15:08:03.814Z,32.30
2022-08-18T15:10:32.676Z,32.30
2022-08-18T15:13:03.257Z,32.30
2022-08-18T15:15:50.529Z,32.30
2022-08-18T15:18:22.733Z,32.30
2022-08-18T15:21:19.479Z,32.30
2022-08-18T15:24:20.355Z,32.30
2022-08-18T15:26:57.880Z,32.20
2022-08-18T15:29:28.985Z,32.20
2022-08-18T15:32:05.728Z,32.00
2022-08-18T15:34:46.376Z,31.90
2022-08-18T15:37:19.545Z,31.80
2022-08-18T15:40:01.323Z,31.70
2022-08-18T15:42:30.458Z,31.60
2022-08-18T15:45:12.054Z,31.50
2022-08-18T15:47:42.698Z,31.40
2022-08-18T15:50:21.653Z,31.40
2022-08-18T15:52:57.614Z,31.30
2022-08-18T15:55:27.528Z,31.30
2022-08-18T15:57:58.265Z,31.20
2022-08-18T16:00:27.968Z,31.20
2022-08-18T16:03:02.708Z,31.20
2022-08-18T16:05:37.460Z,31.20
2022-08-18T16:08:10.425Z,31.20
2022-08-18T16:10:40.304Z,31.20
2022-08-18T16:13:08.948Z,31.20
2022-08-18T16:15:43.012Z,31.20
2022-08-18T16:18:11.361Z,31.20
2022-08-18T16:20:39.407Z,31.20
2022-08-18T16:23:07.471Z,31.20
2022-08-18T16:25:38.319Z,31.30
2022-08-18T16:28:05.765Z,31.20
2022-08-18T16:30:33.741Z,31.30
2022-08-18T16:33:03.499Z,31.20
2022-08-18T16:35:32.672Z,31.10
2022-08-18T16:38:06.441Z,31.10
2022-08-18T16:40:33.744Z,31.00
2022-08-18T16:43:01.136Z,31.00
2022-08-18T16:45:28.960Z,30.90
2022-08-18T16:47:56.309Z,30.90
2022-08-18T16:50:25.327Z,30.90
2022-08-18T16:52:52.993Z,30.80
2022-08-18T16:55:21.081Z,30.70
2022-08-18T16:58:07.083Z,30.60
2022-08-18T17:00:54.969Z,30.50
2022-08-18T17:03:42.808Z,30.40
2022-08-18T17:06:13.760Z,30.40
2022-08-18T17:08:42.689Z,30.30
2022-08-18T17:11:13.787Z,30.30
2022-08-18T17:13:42.734Z,30.20
2022-08-18T17:16:11.648Z,30.20
2022-08-18T17:18:40.176Z,30.10
2022-08-18T17:21:10.536Z,30.00
2022-08-18T17:23:39.260Z,29.90
2022-08-18T17:26:12.589Z,29.80
2022-08-18T17:28:50.523Z,29.80
2022-08-18T17:31:22.608Z,29.70
2022-08-18T17:33:53.319Z,29.60
2022-08-18T17:36:32.288Z,29.60
2022-08-18T17:39:04.138Z,29.50
2022-08-18T17:41:33.387Z,29.40
2022-08-18T17:44:03.186Z,29.30
2022-08-18T17:46:39.829Z,29.30
2022-08-18T17:49:14.491Z,29.20
2022-08-18T17:51:52.434Z,29.10
2022-08-18T17:54:43.609Z,29.00
2022-08-18T17:57:15.726Z,28.90
2022-08-18T18:00:13.652Z,28.90
2022-08-18T18:02:45.072Z,28.80
2022-08-18T18:05:17.664Z,28.80
2022-08-18T18:07:50.215Z,28.70
2022-08-18T18:10:51.142Z,28.60
2022-08-18T18:13:19.176Z,28.60
2022-08-18T18:15:51.507Z,28.60
2022-08-18T18:18:41.772Z,28.50
2022-08-18T18:21:14.962Z,28.50
2022-08-18T18:24:08.919Z,28.40
2022-08-18T18:26:39.197Z,28.40
2022-08-18T18:29:12.642Z,28.40
2022-08-18T18:31:43.758Z,28.30
2022-08-18T18:34:23.251Z,28.30
2022-08-18T18:36:57.433Z,28.20
2022-08-18T18:39:35.940Z,28.20
2022-08-18T18:42:19.424Z,28.10
2022-08-18T18:44:53.273Z,28.00
2022-08-18T18:47:30.453Z,28.00
2022-08-18T18:50:09.686Z,27.90
2022-08-18T18:52:43.412Z,27.80
2022-08-18T18:55:21.673Z,27.70
2022-08-18T18:58:15.682Z,27.70
2022-08-18T19:00:55.901Z,27.70
2022-08-18T19:03:37.556Z,27.60
2022-08-18T19:06:04.962Z,27.50
2022-08-18T19:08:43.701Z,27.40
2022-08-18T19:11:21.723Z,27.40
2022-08-18T19:13:56.050Z,27.30
2022-08-18T19:16:37.492Z,27.30
2022-08-18T19:19:37.350Z,27.20
2022-08-18T19:22:24.093Z,27.20
2022-08-18T19:24:58.157Z,27.10
2022-08-18T19:27:37.443Z,27.10
2022-08-18T19:30:09.280Z,27.00
2022-08-18T19:32:47.201Z,27.00
2022-08-18T19:35:39.665Z,27.00
2022-08-18T19:38:25.854Z,26.90
2022-08-18T19:41:19.773Z,26.90
2022-08-18T19:43:58.105Z,26.90
2022-08-18T19:46:39.449Z,26.80
2022-08-18T19:49:31.461Z,26.80
2022-08-18T19:52:08.631Z,26.80
2022-08-18T19:55:17.980Z,26.80
2022-08-18T19:58:03.925Z,26.70
2022-08-18T20:01:19.849Z,26.60
2022-08-18T20:04:17.485Z,26.50
2022-08-18T20:07:31.329Z,26.50
2022-08-18T20:10:22.931Z,26.50
2022-08-18T20:13:10.773Z,26.40
2022-08-18T20:16:10.715Z,26.40
2022-08-18T20:18:44.162Z,26.40
2022-08-18T20:21:15.593Z,26.30
2022-08-18T20:24:04.863Z,26.30
2022-08-18T20:26:35.186Z,26.30
2022-08-18T20:29:02.900Z,26.30
2022-08-18T20:31:49.605Z,26.30
2022-08-18T20:34:22.575Z,26.20
2022-08-18T20:36:51.839Z,26.20
2022-08-18T20:39:41.375Z,26.10
2022-08-18T20:42:35.012Z,26.10
2022-08-18T20:45:27.199Z,26.00
2022-08-18T20:48:16.402Z,26.00
2022-08-18T20:50:59.143Z,26.00
2022-08-18T20:53:49.172Z,26.10
2022-08-18T20:56:43.599Z,26.10
2022-08-18T20:59:20.245Z,26.00
2022-08-18T21:01:59.949Z,26.00
2022-08-18T21:05:00.697Z,25.90
2022-08-18T21:07:37.031Z,25.90
2022-08-18T21:10:12.147Z,25.90
2022-08-18T21:12:52.189Z,25.80
2022-08-18T21:15:24.004Z,25.70
2022-08-18T21:18:07.193Z,25.70
2022-08-18T21:20:35.144Z,25.60
2022-08-18T21:23:09.125Z,25.50
2022-08-18T21:25:40.243Z,25.30
2022-08-18T21:28:07.617Z,25.20
2022-08-18T21:30:35.053Z,25.10
2022-08-18T21:33:20.109Z,25.10
2022-08-18T21:35:48.344Z,24.90
2022-08-18T21:38:26.599Z,24.80
2022-08-18T21:40:59.430Z,24.80
2022-08-18T21:43:49.047Z,24.70
2022-08-18T21:46:25.593Z,24.60
2022-08-18T21:48:55.415Z,24.60
2022-08-18T21:51:31.007Z,24.50
2022-08-18T21:54:00.016Z,24.40
2022-08-18T21:56:31.688Z,24.40
2022-08-18T21:59:08.001Z,24.30
2022-08-18T22:01:39.924Z,24.30
2022-08-18T22:04:21.993Z,24.20
2022-08-18T22:07:00.299Z,24.10
2022-08-18T22:09:53.442Z,24.10
2022-08-18T22:12:42.784Z,24.00
2022-08-18T22:15:18.627Z,24.00
2022-08-18T22:18:06.910Z,24.00
2022-08-18T22:20:58.824Z,23.90
2022-08-18T22:24:04.114Z,23.90
2022-08-18T22:26:32.732Z,23.90
2022-08-18T22:29:26.283Z,23.90
2022-08-18T22:31:55.218Z,23.90
2022-08-18T22:34:27.754Z,23.80
2022-08-18T22:37:24.579Z,23.80
2022-08-18T22:39:55.682Z,23.80
2022-08-18T22:42:26.016Z,23.80
2022-08-18T22:44:53.991Z,23.70
2022-08-18T22:47:22.648Z,23.70
2022-08-18T22:49:50.632Z,23.70
2022-08-18T22:52:29.731Z,23.70
2022-08-18T22:54:59.265Z,23.60
2022-08-18T22:57:28.846Z,23.60
2022-08-18T22:59:58.162Z,23.60
2022-08-18T23:02:27.436Z,23.60
2022-08-18T23:04:54.991Z,23.60
2022-08-18T23:07:22.973Z,23.60
2022-08-18T23:09:50.268Z,23.50
2022-08-18T23:12:18.887Z,23.50
2022-08-18T23:14:46.581Z,23.50
2022-08-18T23:17:14.347Z,23.50
2022-08-18T23:19:43.304Z,23.60
2022-08-18T23:22:10.827Z,23.50
2022-08-18T23:24:39.345Z,23.40
2022-08-18T23:27:07.160Z,23.40
2022-08-18T23:29:39.708Z,23.40
2022-08-18T23:32:07.317Z,23.40
2022-08-18T23:34:35.803Z,23.40
2022-08-18T23:37:04.903Z,23.40
2022-08-18T23:39:34.701Z,23.30
2022-08-18T23:42:04.418Z,23.20
2022-08-18T23:44:33.449Z,23.30
2022-08-18T23:47:01.155Z,23.20
2022-08-18T23:49:30.445Z,23.20
2022-08-18T23:51:59.099Z,23.30
2022-08-18T23:54:33.231Z,23.20
2022-08-18T23:57:01.360Z,23.20
2022-08-18T23:59:30.439Z,23.20
